sensor_id;sensor_type;location;lat;lon;timestamp;pressure;altitude;pressure_sealevel;temperature;humidity
32492;BME280;20605;49.742;18.802;2023-04-04T00:00:08;98367.73;;;-0.63;100.00
32492;BME280;20605;49.742;18.802;2023-04-04T00:02:35;98360.67;;;-0.66;100.00
32492;BME280;20605;49.742;18.802;2023-04-04T00:05:00;98362.33;;;-0.68;100.00
32492;BME280;20605;49.742;18.802;2023-04-04T00:07:26;98360.02;;;-0.72;100.00
32492;BME280;20605;49.742;18.802;2023-04-04T00:09:52;98360.64;;;-0.75;100.00
32492;BME280;20605;49.742;18.802;2023-04-04T00:12:18;98362.73;;;-0.80;100.00
32492;BME280;20605;49.742;18.802;2023-04-04T00:14:44;98364.34;;;-0.85;100.00
32492;BME280;20605;49.742;18.802;2023-04-04T00:17:10;98364.59;;;-0.89;100.00
32492;BME280;20605;49.742;18.802;2023-04-04T00:19:35;98363.64;;;-0.93;100.00
32492;BME280;20605;49.742;18.802;2023-04-04T00:22:01;98359.27;;;-0.98;100.00
32492;BME280;20605;49.742;18.802;2023-04-04T00:24:27;98358.98;;;-1.03;100.00
32492;BME280;20605;49.742;18.802;2023-04-04T00:26:53;98358.23;;;-1.06;100.00
32492;BME280;20605;49.742;18.802;2023-04-04T00:29:19;98359.69;;;-1.10;100.00
32492;BME280;20605;49.742;18.802;2023-04-04T00:31:45;98356.43;;;-1.11;100.00
32492;BME280;20605;49.742;18.802;2023-04-04T00:34:11;98354.38;;;-1.11;100.00
32492;BME280;20605;49.742;18.802;2023-04-04T00:36:36;98356.08;;;-1.11;100.00
32492;BME280;20605;49.742;18.802;2023-04-04T00:39:02;98356.95;;;-1.10;100.00
32492;BME280;20605;49.742;18.802;2023-04-04T00:41:28;98355.21;;;-1.11;100.00
32492;BME280;20605;49.742;18.802;2023-04-04T00:43:55;98355.48;;;-1.14;100.00
32492;BME280;20605;49.742;18.802;2023-04-04T00:46:21;98359.83;;;-1.18;100.00
32492;BME280;20605;49.742;18.802;2023-04-04T00:48:48;98361.46;;;-1.21;100.00
32492;BME280;20605;49.742;18.802;2023-04-04T00:51:14;98360.05;;;-1.23;100.00
32492;BME280;20605;49.742;18.802;2023-04-04T00:53:44;98366.09;;;-1.27;100.00
32492;BME280;20605;49.742;18.802;2023-04-04T00:56:13;98363.27;;;-1.33;100.00
32492;BME280;20605;49.742;18.802;2023-04-04T00:58:41;98365.36;;;-1.38;100.00
32492;BME280;20605;49.742;18.802;2023-04-04T01:01:08;98367.30;;;-1.42;100.00
32492;BME280;20605;49.742;18.802;2023-04-04T01:03:36;98362.95;;;-1.46;100.00
32492;BME280;20605;49.742;18.802;2023-04-04T01:06:02;98358.77;;;-1.49;100.00
32492;BME280;20605;49.742;18.802;2023-04-04T01:08:29;98362.14;;;-1.50;100.00
32492;BME280;20605;49.742;18.802;2023-04-04T01:10:56;98363.69;;;-1.50;100.00
32492;BME280;20605;49.742;18.802;2023-04-04T01:13:22;98366.11;;;-1.48;100.00
32492;BME280;20605;49.742;18.802;2023-04-04T01:15:49;98366.67;;;-1.46;100.00
32492;BME280;20605;49.742;18.802;2023-04-04T01:18:19;98364.30;;;-1.46;100.00
32492;BME280;20605;49.742;18.802;2023-04-04T01:20:56;98366.02;;;-1.46;100.00
32492;BME280;20605;49.742;18.802;2023-04-04T01:26:20;98366.59;;;-1.50;100.00
32492;BME280;20605;49.742;18.802;2023-04-04T01:28:49;98364.52;;;-1.51;100.00
32492;BME280;20605;49.742;18.802;2023-04-04T01:31:29;98366.20;;;-1.52;100.00
32492;BME280;20605;49.742;18.802;2023-04-04T01:34:06;98369.60;;;-1.52;100.00
32492;BME280;20605;49.742;18.802;2023-04-04T01:36:40;98372.14;;;-1.53;100.00
32492;BME280;20605;49.742;18.802;2023-04-04T01:41:59;98372.69;;;-1.51;100.00
32492;BME280;20605;49.742;18.802;2023-04-04T01:44:28;98371.02;;;-1.50;100.00
32492;BME280;20605;49.742;18.802;2023-04-04T01:46:54;98373.31;;;-1.47;100.00
32492;BME280;20605;49.742;18.802;2023-04-04T01:49:22;98372.27;;;-1.41;100.00
32492;BME280;20605;49.742;18.802;2023-04-04T01:51:52;98371.39;;;-1.35;100.00
32492;BME280;20605;49.742;18.802;2023-04-04T01:54:19;98371.35;;;-1.28;100.00
32492;BME280;20605;49.742;18.802;2023-04-04T01:56:45;98372.38;;;-1.21;100.00
32492;BME280;20605;49.742;18.802;2023-04-04T01:59:17;98373.70;;;-1.15;100.00
32492;BME280;20605;49.742;18.802;2023-04-04T02:01:43;98374.16;;;-1.11;100.00
32492;BME280;20605;49.742;18.802;2023-04-04T02:04:09;98372.69;;;-1.08;100.00
32492;BME280;20605;49.742;18.802;2023-04-04T02:06:37;98376.66;;;-1.05;100.00
32492;BME280;20605;49.742;18.802;2023-04-04T02:09:04;98375.27;;;-1.07;100.00
32492;BME280;20605;49.742;18.802;2023-04-04T02:11:32;98374.56;;;-1.08;100.00
32492;BME280;20605;49.742;18.802;2023-04-04T02:13:58;98372.62;;;-1.11;100.00
32492;BME280;20605;49.742;18.802;2023-04-04T02:16:24;98370.65;;;-1.14;100.00
32492;BME280;20605;49.742;18.802;2023-04-04T02:18:51;98371.80;;;-1.16;100.00
32492;BME280;20605;49.742;18.802;2023-04-04T02:21:17;98374.99;;;-1.18;100.00
32492;BME280;20605;49.742;18.802;2023-04-04T02:23:43;98376.73;;;-1.17;100.00
32492;BME280;20605;49.742;18.802;2023-04-04T02:26:09;98373.35;;;-1.15;100.00
32492;BME280;20605;49.742;18.802;2023-04-04T02:28:36;98374.21;;;-1.15;100.00
32492;BME280;20605;49.742;18.802;2023-04-04T02:31:02;98371.69;;;-1.14;100.00
32492;BME280;20605;49.742;18.802;2023-04-04T02:33:28;98370.70;;;-1.13;100.00
32492;BME280;20605;49.742;18.802;2023-04-04T02:35:59;98371.25;;;-1.11;100.00
32492;BME280;20605;49.742;18.802;2023-04-04T02:38:28;98368.36;;;-1.11;100.00
32492;BME280;20605;49.742;18.802;2023-04-04T02:40:54;98370.89;;;-1.12;100.00
32492;BME280;20605;49.742;18.802;2023-04-04T02:43:20;98368.14;;;-1.12;100.00
32492;BME280;20605;49.742;18.802;2023-04-04T02:45:47;98368.95;;;-1.15;100.00
32492;BME280;20605;49.742;18.802;2023-04-04T02:48:20;98365.52;;;-1.15;100.00
32492;BME280;20605;49.742;18.802;2023-04-04T02:50:48;98365.52;;;-1.16;100.00
32492;BME280;20605;49.742;18.802;2023-04-04T02:53:14;98364.52;;;-1.14;100.00
32492;BME280;20605;49.742;18.802;2023-04-04T02:55:40;98364.55;;;-1.13;100.00
32492;BME280;20605;49.742;18.802;2023-04-04T02:58:06;98366.92;;;-1.14;100.00
32492;BME280;20605;49.742;18.802;2023-04-04T03:00:32;98364.70;;;-1.14;100.00
32492;BME280;20605;49.742;18.802;2023-04-04T03:02:58;98362.05;;;-1.18;100.00
32492;BME280;20605;49.742;18.802;2023-04-04T03:05:30;98367.78;;;-1.21;100.00
32492;BME280;20605;49.742;18.802;2023-04-04T03:07:58;98369.48;;;-1.21;100.00
32492;BME280;20605;49.742;18.802;2023-04-04T03:10:27;98368.97;;;-1.21;100.00
32492;BME280;20605;49.742;18.802;2023-04-04T03:12:57;98372.23;;;-1.20;100.00
32492;BME280;20605;49.742;18.802;2023-04-04T03:15:23;98369.97;;;-1.22;100.00
32492;BME280;20605;49.742;18.802;2023-04-04T03:17:50;98369.88;;;-1.25;100.00
32492;BME280;20605;49.742;18.802;2023-04-04T03:20:16;98368.76;;;-1.30;100.00
32492;BME280;20605;49.742;18.802;2023-04-04T03:22:43;98367.35;;;-1.33;100.00
32492;BME280;20605;49.742;18.802;2023-04-04T03:25:09;98368.70;;;-1.34;100.00
32492;BME280;20605;49.742;18.802;2023-04-04T03:27:36;98364.58;;;-1.35;100.00
32492;BME280;20605;49.742;18.802;2023-04-04T03:30:01;98364.85;;;-1.38;100.00
32492;BME280;20605;49.742;18.802;2023-04-04T03:32:30;98367.38;;;-1.39;100.00
32492;BME280;20605;49.742;18.802;2023-04-04T03:34:56;98367.69;;;-1.40;100.00
32492;BME280;20605;49.742;18.802;2023-04-04T03:37:22;98365.84;;;-1.39;100.00
32492;BME280;20605;49.742;18.802;2023-04-04T03:39:48;98358.66;;;-1.40;100.00
32492;BME280;20605;49.742;18.802;2023-04-04T03:42:13;98362.65;;;-1.44;100.00
32492;BME280;20605;49.742;18.802;2023-04-04T03:44:40;98358.71;;;-1.45;100.00
32492;BME280;20605;49.742;18.802;2023-04-04T03:47:08;98353.25;;;-1.45;100.00
32492;BME280;20605;49.742;18.802;2023-04-04T03:49:34;98353.41;;;-1.46;100.00
32492;BME280;20605;49.742;18.802;2023-04-04T03:52:00;98348.44;;;-1.47;100.00
32492;BME280;20605;49.742;18.802;2023-04-04T03:54:29;98351.97;;;-1.48;100.00
32492;BME280;20605;49.742;18.802;2023-04-04T03:56:56;98348.83;;;-1.52;100.00
32492;BME280;20605;49.742;18.802;2023-04-04T03:59:22;98354.94;;;-1.53;100.00
32492;BME280;20605;49.742;18.802;2023-04-04T04:01:48;98353.39;;;-1.53;100.00
32492;BME280;20605;49.742;18.802;2023-04-04T04:04:14;98355.83;;;-1.58;100.00
32492;BME280;20605;49.742;18.802;2023-04-04T04:06:40;98355.57;;;-1.61;100.00
32492;BME280;20605;49.742;18.802;2023-04-04T04:09:06;98355.77;;;-1.60;100.00
32492;BME280;20605;49.742;18.802;2023-04-04T04:11:32;98353.38;;;-1.61;100.00
32492;BME280;20605;49.742;18.802;2023-04-04T04:13:58;98351.16;;;-1.61;100.00
32492;BME280;20605;49.742;18.802;2023-04-04T04:16:25;98350.11;;;-1.62;100.00
32492;BME280;20605;49.742;18.802;2023-04-04T04:18:52;98351.48;;;-1.62;100.00
32492;BME280;20605;49.742;18.802;2023-04-04T04:21:25;98350.63;;;-1.62;100.00
32492;BME280;20605;49.742;18.802;2023-04-04T04:23:51;98348.23;;;-1.62;100.00
32492;BME280;20605;49.742;18.802;2023-04-04T04:26:17;98350.88;;;-1.66;100.00
32492;BME280;20605;49.742;18.802;2023-04-04T04:28:43;98347.63;;;-1.66;100.00
32492;BME280;20605;49.742;18.802;2023-04-04T04:31:12;98347.17;;;-1.64;100.00
32492;BME280;20605;49.742;18.802;2023-04-04T04:33:45;98348.27;;;-1.61;100.00
32492;BME280;20605;49.742;18.802;2023-04-04T04:36:11;98346.98;;;-1.57;100.00
32492;BME280;20605;49.742;18.802;2023-04-04T04:38:51;98348.70;;;-1.58;100.00
32492;BME280;20605;49.742;18.802;2023-04-04T04:41:17;98354.95;;;-1.59;100.00
32492;BME280;20605;49.742;18.802;2023-04-04T04:43:46;98352.91;;;-1.58;100.00
32492;BME280;20605;49.742;18.802;2023-04-04T04:46:11;98351.55;;;-1.59;100.00
32492;BME280;20605;49.742;18.802;2023-04-04T04:48:39;98350.35;;;-1.59;100.00
32492;BME280;20605;49.742;18.802;2023-04-04T04:51:06;98354.09;;;-1.59;100.00
32492;BME280;20605;49.742;18.802;2023-04-04T04:53:42;98353.26;;;-1.59;100.00
32492;BME280;20605;49.742;18.802;2023-04-04T04:56:08;98352.90;;;-1.60;100.00
32492;BME280;20605;49.742;18.802;2023-04-04T04:58:35;98351.36;;;-1.59;100.00
32492;BME280;20605;49.742;18.802;2023-04-04T05:01:01;98353.33;;;-1.55;100.00
32492;BME280;20605;49.742;18.802;2023-04-04T05:03:36;98356.52;;;-1.57;100.00
32492;BME280;20605;49.742;18.802;2023-04-04T05:06:04;98358.08;;;-1.63;100.00
32492;BME280;20605;49.742;18.802;2023-04-04T05:08:32;98360.48;;;-1.69;100.00
32492;BME280;20605;49.742;18.802;2023-04-04T05:11:20;98361.38;;;-1.74;100.00
32492;BME280;20605;49.742;18.802;2023-04-04T05:13:46;98360.48;;;-1.76;100.00
32492;BME280;20605;49.742;18.802;2023-04-04T05:16:14;98358.20;;;-1.78;100.00
32492;BME280;20605;49.742;18.802;2023-04-04T05:18:44;98357.52;;;-1.79;100.00
32492;BME280;20605;49.742;18.802;2023-04-04T05:21:10;98362.45;;;-1.79;100.00
32492;BME280;20605;49.742;18.802;2023-04-04T05:23:36;98361.91;;;-1.81;100.00
32492;BME280;20605;49.742;18.802;2023-04-04T05:26:04;98366.34;;;-1.80;100.00
32492;BME280;20605;49.742;18.802;2023-04-04T05:28:32;98369.63;;;-1.78;100.00
32492;BME280;20605;49.742;18.802;2023-04-04T05:31:01;98366.09;;;-1.76;100.00
32492;BME280;20605;49.742;18.802;2023-04-04T05:33:28;98374.08;;;-1.77;100.00
32492;BME280;20605;49.742;18.802;2023-04-04T05:36:11;98371.19;;;-1.70;100.00
32492;BME280;20605;49.742;18.802;2023-04-04T05:38:49;98371.35;;;-1.63;100.00
32492;BME280;20605;49.742;18.802;2023-04-04T05:41:16;98373.82;;;-1.60;100.00
32492;BME280;20605;49.742;18.802;2023-04-04T05:43:44;98372.38;;;-1.57;100.00
32492;BME280;20605;49.742;18.802;2023-04-04T05:46:16;98375.68;;;-1.54;100.00
32492;BME280;20605;49.742;18.802;2023-04-04T05:48:47;98374.83;;;-1.54;100.00
32492;BME280;20605;49.742;18.802;2023-04-04T05:51:16;98376.73;;;-1.53;100.00
32492;BME280;20605;49.742;18.802;2023-04-04T05:53:48;98376.86;;;-1.47;100.00
32492;BME280;20605;49.742;18.802;2023-04-04T05:56:21;98376.30;;;-1.43;100.00
32492;BME280;20605;49.742;18.802;2023-04-04T05:58:47;98377.35;;;-1.42;100.00
32492;BME280;20605;49.742;18.802;2023-04-04T06:01:14;98384.06;;;-1.39;100.00
32492;BME280;20605;49.742;18.802;2023-04-04T06:03:41;98383.77;;;-1.37;100.00
32492;BME280;20605;49.742;18.802;2023-04-04T06:06:11;98385.77;;;-1.32;100.00
32492;BME280;20605;49.742;18.802;2023-04-04T06:08:37;98388.75;;;-1.27;100.00
32492;BME280;20605;49.742;18.802;2023-04-04T06:11:03;98390.25;;;-1.21;100.00
32492;BME280;20605;49.742;18.802;2023-04-04T06:13:29;98387.54;;;-1.14;100.00
32492;BME280;20605;49.742;18.802;2023-04-04T06:16:01;98385.00;;;-1.06;100.00
32492;BME280;20605;49.742;18.802;2023-04-04T06:18:27;98387.80;;;-0.95;100.00
32492;BME280;20605;49.742;18.802;2023-04-04T06:20:53;98388.46;;;-0.81;100.00
32492;BME280;20605;49.742;18.802;2023-04-04T06:23:19;98384.16;;;-0.75;100.00
32492;BME280;20605;49.742;18.802;2023-04-04T06:25:48;98379.55;;;-0.76;100.00
32492;BME280;20605;49.742;18.802;2023-04-04T06:28:18;98383.70;;;-0.73;100.00
32492;BME280;20605;49.742;18.802;2023-04-04T06:30:46;98389.34;;;-0.72;100.00
32492;BME280;20605;49.742;18.802;2023-04-04T06:33:13;98390.93;;;-0.71;100.00
32492;BME280;20605;49.742;18.802;2023-04-04T06:35:44;98395.10;;;-0.67;100.00
32492;BME280;20605;49.742;18.802;2023-04-04T06:38:11;98391.26;;;-0.63;100.00
32492;BME280;20605;49.742;18.802;2023-04-04T06:40:38;98390.02;;;-0.56;100.00
32492;BME280;20605;49.742;18.802;2023-04-04T06:43:03;98391.52;;;-0.51;100.00
32492;BME280;20605;49.742;18.802;2023-04-04T06:45:37;98388.11;;;-0.51;100.00
32492;BME280;20605;49.742;18.802;2023-04-04T06:48:03;98391.58;;;-0.48;100.00
32492;BME280;20605;49.742;18.802;2023-04-04T06:50:32;98387.64;;;-0.49;100.00
32492;BME280;20605;49.742;18.802;2023-04-04T06:52:59;98390.35;;;-0.50;100.00
32492;BME280;20605;49.742;18.802;2023-04-04T06:55:28;98388.83;;;-0.49;100.00
32492;BME280;20605;49.742;18.802;2023-04-04T06:57:54;98391.66;;;-0.44;100.00
32492;BME280;20605;49.742;18.802;2023-04-04T07:00:20;98388.95;;;-0.43;100.00
32492;BME280;20605;49.742;18.802;2023-04-04T07:02:46;98390.13;;;-0.44;100.00
32492;BME280;20605;49.742;18.802;2023-04-04T07:05:12;98390.08;;;-0.47;100.00
32492;BME280;20605;49.742;18.802;2023-04-04T07:07:39;98387.86;;;-0.46;100.00
32492;BME280;20605;49.742;18.802;2023-04-04T07:10:05;98391.26;;;-0.47;100.00
32492;BME280;20605;49.742;18.802;2023-04-04T07:12:31;98392.04;;;-0.42;100.00
32492;BME280;20605;49.742;18.802;2023-04-04T07:14:57;98390.19;;;-0.33;100.00
32492;BME280;20605;49.742;18.802;2023-04-04T07:17:23;98386.30;;;-0.31;100.00
32492;BME280;20605;49.742;18.802;2023-04-04T07:19:52;98389.33;;;-0.25;100.00
32492;BME280;20605;49.742;18.802;2023-04-04T07:22:18;98389.92;;;-0.21;100.00
32492;BME280;20605;49.742;18.802;2023-04-04T07:24:44;98390.00;;;-0.25;100.00
32492;BME280;20605;49.742;18.802;2023-04-04T07:27:10;98391.81;;;-0.29;100.00
32492;BME280;20605;49.742;18.802;2023-04-04T07:29:35;98390.16;;;-0.35;100.00
32492;BME280;20605;49.742;18.802;2023-04-04T07:32:02;98391.86;;;-0.35;100.00
32492;BME280;20605;49.742;18.802;2023-04-04T07:34:28;98391.73;;;-0.32;100.00
32492;BME280;20605;49.742;18.802;2023-04-04T07:36:54;98395.74;;;-0.28;100.00
32492;BME280;20605;49.742;18.802;2023-04-04T07:39:20;98396.30;;;-0.18;100.00
32492;BME280;20605;49.742;18.802;2023-04-04T07:41:46;98396.73;;;-0.05;100.00
32492;BME280;20605;49.742;18.802;2023-04-04T07:44:12;98395.16;;;0.13;100.00
32492;BME280;20605;49.742;18.802;2023-04-04T07:46:38;98396.56;;;0.32;100.00
32492;BME280;20605;49.742;18.802;2023-04-04T07:49:04;98400.26;;;0.39;100.00
32492;BME280;20605;49.742;18.802;2023-04-04T07:51:31;98396.01;;;0.40;100.00
32492;BME280;20605;49.742;18.802;2023-04-04T07:54:01;98400.67;;;0.43;100.00
32492;BME280;20605;49.742;18.802;2023-04-04T07:56:27;98400.66;;;0.51;100.00
32492;BME280;20605;49.742;18.802;2023-04-04T07:58:53;98396.08;;;0.54;100.00
32492;BME280;20605;49.742;18.802;2023-04-04T08:01:19;98392.31;;;0.54;100.00
32492;BME280;20605;49.742;18.802;2023-04-04T08:03:44;98388.66;;;0.59;100.00
32492;BME280;20605;49.742;18.802;2023-04-04T08:06:10;98380.99;;;0.93;100.00
32492;BME280;20605;49.742;18.802;2023-04-04T08:08:36;98381.75;;;1.74;100.00
32492;BME280;20605;49.742;18.802;2023-04-04T08:11:03;98379.01;;;2.94;100.00
32492;BME280;20605;49.742;18.802;2023-04-04T08:13:29;98377.22;;;4.10;100.00
32492;BME280;20605;49.742;18.802;2023-04-04T08:15:54;98372.68;;;4.91;100.00
32492;BME280;20605;49.742;18.802;2023-04-04T08:18:21;98368.33;;;5.35;98.96
32492;BME280;20605;49.742;18.802;2023-04-04T08:20:46;98366.68;;;5.04;98.88
32492;BME280;20605;49.742;18.802;2023-04-04T08:23:12;98372.02;;;4.83;98.22
32492;BME280;20605;49.742;18.802;2023-04-04T08:25:38;98372.08;;;5.56;98.07
32492;BME280;20605;49.742;18.802;2023-04-04T08:28:04;98369.58;;;6.21;96.83
32492;BME280;20605;49.742;18.802;2023-04-04T08:30:30;98362.14;;;7.19;96.26
32492;BME280;20605;49.742;18.802;2023-04-04T08:32:57;98353.49;;;8.68;95.92
32492;BME280;20605;49.742;18.802;2023-04-04T08:35:22;98350.45;;;10.41;93.40
32492;BME280;20605;49.742;18.802;2023-04-04T08:37:48;98350.49;;;10.70;90.14
32492;BME280;20605;49.742;18.802;2023-04-04T08:40:14;98342.25;;;11.62;87.32
32492;BME280;20605;49.742;18.802;2023-04-04T08:42:41;98337.34;;;12.13;84.56
32492;BME280;20605;49.742;18.802;2023-04-04T08:45:10;98340.90;;;11.85;82.91
32492;BME280;20605;49.742;18.802;2023-04-04T08:47:38;98332.29;;;12.30;82.32
32492;BME280;20605;49.742;18.802;2023-04-04T08:50:07;98327.27;;;12.52;80.92
32492;BME280;20605;49.742;18.802;2023-04-04T08:52:34;98322.31;;;13.08;81.45
32492;BME280;20605;49.742;18.802;2023-04-04T08:55:03;98321.80;;;13.43;79.95
32492;BME280;20605;49.742;18.802;2023-04-04T08:57:29;98319.02;;;13.77;78.71
32492;BME280;20605;49.742;18.802;2023-04-04T08:59:56;98313.41;;;12.93;76.45
32492;BME280;20605;49.742;18.802;2023-04-04T09:04:52;98316.08;;;11.95;75.33
32492;BME280;20605;49.742;18.802;2023-04-04T09:07:19;98312.60;;;12.53;72.71
32492;BME280;20605;49.742;18.802;2023-04-04T09:09:46;98309.61;;;13.43;74.34
32492;BME280;20605;49.742;18.802;2023-04-04T09:12:13;98315.58;;;13.26;72.01
32492;BME280;20605;49.742;18.802;2023-04-04T09:14:40;98312.56;;;12.31;66.89
32492;BME280;20605;49.742;18.802;2023-04-04T09:17:07;98316.39;;;10.84;66.69
32492;BME280;20605;49.742;18.802;2023-04-04T09:19:38;98317.99;;;9.41;67.90
32492;BME280;20605;49.742;18.802;2023-04-04T09:22:07;98319.48;;;8.18;64.87
32492;BME280;20605;49.742;18.802;2023-04-04T09:24:40;98322.63;;;7.15;68.15
32492;BME280;20605;49.742;18.802;2023-04-04T09:27:07;98321.63;;;6.51;67.72
32492;BME280;20605;49.742;18.802;2023-04-04T09:29:38;98326.36;;;6.81;70.42
32492;BME280;20605;49.742;18.802;2023-04-04T09:32:09;98320.45;;;8.10;69.30
32492;BME280;20605;49.742;18.802;2023-04-04T09:34:35;98317.13;;;8.26;67.72
32492;BME280;20605;49.742;18.802;2023-04-04T09:37:03;98320.59;;;7.87;66.88
32492;BME280;20605;49.742;18.802;2023-04-04T09:39:31;98326.72;;;7.36;67.03
32492;BME280;20605;49.742;18.802;2023-04-04T09:41:58;98323.75;;;6.87;66.50
32492;BME280;20605;49.742;18.802;2023-04-04T09:44:23;98317.48;;;6.29;64.58
32492;BME280;20605;49.742;18.802;2023-04-04T09:46:50;98322.69;;;5.89;66.73
32492;BME280;20605;49.742;18.802;2023-04-04T09:49:19;98313.59;;;5.78;67.31
32492;BME280;20605;49.742;18.802;2023-04-04T09:51:53;98308.86;;;5.98;67.07
32492;BME280;20605;49.742;18.802;2023-04-04T09:54:22;98302.35;;;6.45;67.75
32492;BME280;20605;49.742;18.802;2023-04-04T09:56:49;98300.27;;;7.06;67.08
32492;BME280;20605;49.742;18.802;2023-04-04T09:59:17;98299.21;;;7.25;66.03
32492;BME280;20605;49.742;18.802;2023-04-04T10:01:44;98302.65;;;6.91;64.58
32492;BME280;20605;49.742;18.802;2023-04-04T10:04:10;98295.09;;;6.48;65.39
32492;BME280;20605;49.742;18.802;2023-04-04T10:06:37;98300.56;;;6.06;64.84
32492;BME280;20605;49.742;18.802;2023-04-04T10:09:03;98304.42;;;5.85;65.94
32492;BME280;20605;49.742;18.802;2023-04-04T10:11:31;98296.46;;;5.98;66.78
32492;BME280;20605;49.742;18.802;2023-04-04T10:13:59;98297.23;;;6.13;67.07
32492;BME280;20605;49.742;18.802;2023-04-04T10:16:25;98298.81;;;6.08;65.56
32492;BME280;20605;49.742;18.802;2023-04-04T10:18:52;98300.31;;;5.78;65.09
32492;BME280;20605;49.742;18.802;2023-04-04T10:21:18;98296.29;;;5.54;64.73
32492;BME280;20605;49.742;18.802;2023-04-04T10:23:45;98295.98;;;5.43;66.56
32492;BME280;20605;49.742;18.802;2023-04-04T10:26:12;98293.34;;;5.60;66.03
32492;BME280;20605;49.742;18.802;2023-04-04T10:28:38;98291.71;;;5.77;65.45
32492;BME280;20605;49.742;18.802;2023-04-04T10:31:24;98284.98;;;5.77;64.35
32492;BME280;20605;49.742;18.802;2023-04-04T10:36:39;98277.29;;;6.05;66.12
32492;BME280;20605;49.742;18.802;2023-04-04T10:39:25;98275.64;;;6.44;65.36
32492;BME280;20605;49.742;18.802;2023-04-04T10:41:52;98267.44;;;6.34;64.24
32492;BME280;20605;49.742;18.802;2023-04-04T10:44:31;98265.23;;;6.03;64.10
32492;BME280;20605;49.742;18.802;2023-04-04T10:49:31;98272.38;;;5.48;65.64
32492;BME280;20605;49.742;18.802;2023-04-04T10:51:57;98271.27;;;5.24;65.91
32492;BME280;20605;49.742;18.802;2023-04-04T10:54:24;98269.80;;;5.01;65.91
32492;BME280;20605;49.742;18.802;2023-04-04T10:56:53;98276.53;;;4.86;66.34
32492;BME280;20605;49.742;18.802;2023-04-04T10:59:19;98275.31;;;4.92;67.07
32492;BME280;20605;49.742;18.802;2023-04-04T11:01:57;98274.97;;;4.92;66.49
32492;BME280;20605;49.742;18.802;2023-04-04T11:04:31;98273.09;;;4.77;66.74
32492;BME280;20605;49.742;18.802;2023-04-04T11:09:54;98277.41;;;4.39;68.66
32492;BME280;20605;49.742;18.802;2023-04-04T11:12:30;98280.15;;;4.37;69.22
32492;BME280;20605;49.742;18.802;2023-04-04T11:17:57;98285.66;;;4.43;69.34
32492;BME280;20605;49.742;18.802;2023-04-04T11:22:56;98284.80;;;4.34;69.17
32492;BME280;20605;49.742;18.802;2023-04-04T11:28:10;98276.30;;;3.76;69.26
32492;BME280;20605;49.742;18.802;2023-04-04T11:30:39;98288.95;;;3.58;71.04
32492;BME280;20605;49.742;18.802;2023-04-04T11:33:10;98284.48;;;3.55;71.12
32492;BME280;20605;49.742;18.802;2023-04-04T11:35:37;98272.83;;;3.62;71.31
32492;BME280;20605;49.742;18.802;2023-04-04T11:38:12;98273.02;;;3.69;71.61
32492;BME280;20605;49.742;18.802;2023-04-04T11:40:41;98274.56;;;3.70;71.39
32492;BME280;20605;49.742;18.802;2023-04-04T11:43:09;98269.21;;;3.60;71.07
32492;BME280;20605;49.742;18.802;2023-04-04T11:45:42;98270.71;;;3.47;71.67
32492;BME280;20605;49.742;18.802;2023-04-04T11:48:09;98279.90;;;3.29;71.38
32492;BME280;20605;49.742;18.802;2023-04-04T11:50:38;98285.02;;;3.23;72.43
32492;BME280;20605;49.742;18.802;2023-04-04T11:53:06;98285.37;;;3.24;72.34
32492;BME280;20605;49.742;18.802;2023-04-04T11:55:32;98288.30;;;3.27;72.39
32492;BME280;20605;49.742;18.802;2023-04-04T11:58:16;98283.20;;;3.39;72.66
32492;BME280;20605;49.742;18.802;2023-04-04T12:00:43;98288.70;;;3.40;73.56
32492;BME280;20605;49.742;18.802;2023-04-04T12:03:11;98289.91;;;3.41;73.82
32492;BME280;20605;49.742;18.802;2023-04-04T12:05:38;98291.11;;;3.41;74.01
32492;BME280;20605;49.742;18.802;2023-04-04T12:08:08;98286.67;;;3.45;73.80
32492;BME280;20605;49.742;18.802;2023-04-04T12:10:36;98282.39;;;3.49;73.74
32492;BME280;20605;49.742;18.802;2023-04-04T12:13:06;98275.91;;;3.60;74.20
32492;BME280;20605;49.742;18.802;2023-04-04T12:15:34;98272.01;;;3.74;74.47
32492;BME280;20605;49.742;18.802;2023-04-04T12:18:01;98274.75;;;3.71;73.76
32492;BME280;20605;49.742;18.802;2023-04-04T12:20:28;98274.19;;;3.60;74.30
32492;BME280;20605;49.742;18.802;2023-04-04T12:22:55;98283.56;;;3.42;73.96
32492;BME280;20605;49.742;18.802;2023-04-04T12:25:22;98281.08;;;3.25;74.57
32492;BME280;20605;49.742;18.802;2023-04-04T12:27:50;98279.89;;;3.27;74.70
32492;BME280;20605;49.742;18.802;2023-04-04T12:30:17;98285.07;;;3.35;75.03
32492;BME280;20605;49.742;18.802;2023-04-04T12:32:44;98286.32;;;3.44;74.90
32492;BME280;20605;49.742;18.802;2023-04-04T12:35:12;98285.44;;;3.37;74.69
32492;BME280;20605;49.742;18.802;2023-04-04T12:38:00;98292.22;;;3.21;74.69
32492;BME280;20605;49.742;18.802;2023-04-04T12:40:34;98287.83;;;3.03;75.18
32492;BME280;20605;49.742;18.802;2023-04-04T12:43:07;98294.48;;;2.98;76.55
32492;BME280;20605;49.742;18.802;2023-04-04T12:45:38;98291.06;;;3.00;76.79
32492;BME280;20605;49.742;18.802;2023-04-04T12:48:13;98288.28;;;2.94;76.46
32492;BME280;20605;49.742;18.802;2023-04-04T12:50:56;98287.13;;;3.00;76.66
32492;BME280;20605;49.742;18.802;2023-04-04T12:53:24;98290.09;;;3.09;76.66
32492;BME280;20605;49.742;18.802;2023-04-04T12:55:52;98293.75;;;3.19;76.32
32492;BME280;20605;49.742;18.802;2023-04-04T12:58:21;98290.04;;;3.31;76.78
32492;BME280;20605;49.742;18.802;2023-04-04T13:00:50;98284.23;;;3.38;76.34
32492;BME280;20605;49.742;18.802;2023-04-04T13:03:17;98280.09;;;3.33;76.42
32492;BME280;20605;49.742;18.802;2023-04-04T13:05:46;98284.31;;;3.19;77.15
32492;BME280;20605;49.742;18.802;2023-04-04T13:08:12;98282.52;;;3.05;78.34
32492;BME280;20605;49.742;18.802;2023-04-04T13:11:00;98288.50;;;3.01;78.64
32492;BME280;20605;49.742;18.802;2023-04-04T13:13:39;98290.91;;;3.04;79.06
32492;BME280;20605;49.742;18.802;2023-04-04T13:16:11;98288.36;;;3.08;79.21